Katowice, Poland
Current Conditions -  °F | °C
As of 4:30 AM on Friday 21 Nov 2014 (Local Time) from EPKT Reporting Station
Drizzle Drizzle  
Wind Chill: 32°   Ceiling: 200
Heat Index: 36°   Visibility: 1.2mi
Dew Point: 36°   Wind: 5mph
Humidity: 100%   Direction: 300°WNW
Pressure: 30.27"   Gusts: NA
Location:  50.26°N, 19.02°E
Report Text: EPKT 210230Z 30004KT 2000 -DZ BR FEW000 SCT001 BKN002 02/02 Q1025
Loading
Personal Weather Stations






























Interactive Weather Map New forecast layout! Learn more

10-Day Weather Forecast

Advertisements
Track Severe Weather on mobile